Flight Track Log - Related Links

Times and Time Zones

All times are in EDT time to prevent confusion due to time zone crossing. See the N937DL flight status page for this flight to view local times or setup timezone preferences in your user account.

Time Position Orientation Groundspeed Altitude Reporting Facility
EDT Latitude Longitude Course Direction KTS MPH feet Rate Location/Type
Mon 06:47:49 PM 33.6500 -84.4667 284° West 177 204 2,300  Level Atlanta TRACON
Mon 06:48:43 PM 33.6667 -84.5500 284° West 247 284 4,300 2,550 Climbing Atlanta TRACON
Mon 06:49:49 PM 33.6833 -84.6333 287° West 269 310 7,400 2,313 Climbing Atlanta TRACON
Mon 06:51:55 PM 33.7333 -84.8356 288° West 303 349 11,700 2,226 Climbing Atlanta Center
Mon 06:52:55 PM 33.7617 -84.9408 284° West 322 371 14,300 2,500 Climbing Atlanta Center
Mon 06:53:55 PM 33.7858 -85.0536 283° West 339 390 16,700 2,100 Climbing Atlanta Center
Mon 06:54:55 PM 33.8078 -85.1689 284° West 352 405 18,500 1,350 Climbing Atlanta Center
Mon 06:55:55 PM 33.8339 -85.2967 281° West 380 437 19,400 1,250 Climbing Atlanta Center
Mon 06:56:55 PM 33.8572 -85.4372 284° West 419 482 21,000 1,050 Climbing Atlanta Center
Mon 06:57:55 PM 33.8831 -85.5603 283° West 401 461 21,500 1,000 Climbing Atlanta Center
Mon 06:58:55 PM 33.9064 -85.6833 281° West 392 451 23,000 750 Climbing Atlanta Center
Mon 06:59:55 PM 33.9258 -85.7989 281° West 384 442 23,000 450 Level Atlanta Center
Mon 07:00:55 PM 33.9486 -85.9369 283° West 384 442 23,900 800 Climbing Atlanta Center
Mon 07:01:55 PM 33.9756 -86.0778 289° West 408 470 24,600 1,050 Climbing Atlanta Center
Mon 07:02:55 PM 34.0150 -86.2192 288° West 432 497 26,000 1,600 Climbing Atlanta Center
Mon 07:03:55 PM 34.0503 -86.3478 288° West 445 512 27,800 1,750 Climbing Atlanta Center
Mon 07:04:55 PM 34.0872 -86.4869 289° West 445 512 29,500 1,100 Climbing Atlanta Center
Mon 07:05:55 PM 34.1281 -86.6286 289° West 440 506 30,000 250 Climbing Atlanta Center
Mon 07:06:55 PM 34.1669 -86.7678 288° West 440 506 30,000  Level Atlanta Center
Mon 07:08:01 PM 34.2156 -86.9511 289° West 460 529 30,000  Level Memphis Center
Mon 07:09:01 PM 34.2547 -87.0853 289° West 461 531 30,000  Level Memphis Center
Mon 07:10:01 PM 34.2844 -87.1897 289° West 430 495 30,000  Level Memphis Center
Mon 07:11:01 PM 34.3325 -87.3567 291° West 430 495 30,000 347 Level Memphis Center
Mon 07:12:02 PM 34.3756 -87.4958 293° West 441 507 30,700 893 Climbing Memphis Center
Mon 07:13:02 PM 34.4225 -87.6328 304° West 446 513 31,800 655 Climbing Memphis Center
Mon 07:14:01 PM 34.4853 -87.7442 304° West 441 507 32,000 100 Climbing Memphis Center
Mon 07:15:02 PM 34.5547 -87.8681 320° Northwest 447 514 32,000  Level Memphis Center
Mon 07:16:02 PM 34.6483 -87.9639 334° Northwest 442 509 32,000  Level Memphis Center
Mon 07:18:01 PM 34.8844 -88.1014 331° Northwest 459 528 32,000  Level Memphis Center
Mon 07:19:02 PM 34.9964 -88.1769 333° Northwest 467 537 32,000  Level Memphis Center
Mon 07:20:01 PM 35.1103 -88.2478 334° Northwest 467 537 32,000  Level Memphis Center
Mon 07:21:01 PM 35.2261 -88.3158 333° Northwest 462 532 32,000  Level Memphis Center
Mon 07:22:02 PM 35.3422 -88.3869 334° Northwest 462 532 32,000  Level Memphis Center
Mon 07:23:02 PM 35.4536 -88.4531 334° Northwest 456 525 32,000  Level Memphis Center
Mon 07:24:01 PM 35.5717 -88.5244 332° Northwest 456 525 32,000  Level Memphis Center
Mon 07:25:01 PM 35.6853 -88.5986 334° Northwest 456 525 32,000  Level Memphis Center
Mon 07:26:01 PM 35.8031 -88.6703 333° Northwest 456 525 32,000  Level Memphis Center
Mon 07:27:01 PM 35.9186 -88.7422 333° Northwest 463 533 32,000  Level Memphis Center
Mon 07:28:02 PM 36.0342 -88.8144 333° Northwest 463 533 32,000  Level Memphis Center
Mon 07:29:02 PM 36.1497 -88.8867 333° Northwest 458 527 32,000  Level Memphis Center
Mon 07:30:01 PM 36.2653 -88.9592 334° Northwest 458 527 32,000  Level Memphis Center
Mon 07:31:01 PM 36.3808 -89.0294 333° Northwest 458 527 32,000  Level Memphis Center
Mon 07:32:01 PM 36.4983 -89.1025 333° Northwest 458 527 32,000  Level Memphis Center
Mon 07:33:02 PM 36.6242 -89.1831 332° Northwest 458 527 32,000  Level Memphis Center
Mon 07:34:02 PM 36.7353 -89.2567 332° Northwest 453 521 32,000  Level Memphis Center
Mon 07:35:02 PM 36.8464 -89.3303 333° Northwest 453 521 32,000  Level Memphis Center
Mon 07:36:01 PM 36.9572 -89.4014 333° Northwest 453 521 32,000 -1,587 Level Memphis Center
Mon 07:38:11 PM 37.1883 -89.5472 335° Northwest 444 511 27,000 -1,895 Descending Kansas City Center
Mon 07:39:11 PM 37.2994 -89.6131 336° Northwest 444 511 26,000 -500 Descending Kansas City Center
Mon 07:40:11 PM 37.4106 -89.6739 337° Northwest 439 505 26,000 -900 Level Kansas City Center
Mon 07:41:11 PM 37.5236 -89.7347 337° Northwest 434 499 24,200 -2,500 Descending Kansas City Center
Mon 07:42:11 PM 37.6300 -89.7911 336° Northwest 422 486 21,000 -2,650 Descending Kansas City Center
Mon 07:43:11 PM 37.7408 -89.8522 336° Northwest 408 470 18,900 -2,150 Descending Kansas City Center
Mon 07:44:11 PM 37.8261 -89.8997 North 379 436 16,700 -2,257 Descending Kansas City Center
Mon 07:45:00 PM 37.9033 -89.8844 337° Northwest 366 421 14,800 -2,318 Descending FAA TRACON SMA TRACON (SMA)
Mon 07:45:39 PM 37.9667 -89.9189 335° Northwest 357 411 13,300 -2,354 Descending FAA TRACON SMA TRACON (SMA)
Mon 07:46:19 PM 38.0275 -89.9547 337° Northwest 347 399 11,700 -1,778 Descending FAA TRACON SMA TRACON (SMA)
Mon 07:47:00 PM 38.0806 -89.9833 334° Northwest 335 386 10,900 -525 Descending FAA TRACON SMA TRACON (SMA)
Mon 07:47:39 PM 38.1319 -90.0150 336° Northwest 289 333 11,000 76 Climbing FAA TRACON SMA TRACON (SMA)
Mon 07:48:19 PM 38.1814 -90.0428 339° North 282 325 11,000 -74 Level FAA TRACON SMA TRACON (SMA)
Mon 07:49:00 PM 38.2264 -90.0653 351° North 282 325 10,900  Descending FAA TRACON SMA TRACON (SMA)
Mon 07:49:39 PM 38.2797 -90.0761 353° North 282 325 11,000 76 Climbing FAA TRACON SMA TRACON (SMA)
Mon 07:50:19 PM 38.3319 -90.0844 355° North 271 312 11,000 -667 Level FAA TRACON SMA TRACON (SMA)
Mon 07:51:00 PM 38.3775 -90.0900 350° North 265 305 10,100 -1,807 Descending FAA TRACON SMA TRACON (SMA)
Mon 07:51:42 PM 38.4300 -90.1017 352° North 246 283 8,500 -1,899 Descending FAA TRACON SMA TRACON (SMA)
Mon 07:52:19 PM 38.4686 -90.1086 351° North 228 262 7,600 -1,462 Descending FAA TRACON SMA TRACON (SMA)
Mon 07:53:00 PM 38.5058 -90.1164 346° North 219 252 6,600 -1,575 Descending FAA TRACON SMA TRACON (SMA)
Mon 07:53:39 PM 38.5453 -90.1289 345° North 210 242 5,500 -1,823 Descending FAA TRACON SMA TRACON (SMA)
Mon 07:54:19 PM 38.5842 -90.1419 343° North 207 238 4,200 -1,407 Descending FAA TRACON SMA TRACON (SMA)
Mon 07:55:00 PM 38.6172 -90.1553 341° North 203 234 3,600 -1,050 Descending FAA TRACON SMA TRACON (SMA)
Mon 07:55:39 PM 38.6525 -90.1708 332° Northwest 192 221 2,800 -911 Descending FAA TRACON SMA TRACON (SMA)
Mon 07:56:19 PM 38.6847 -90.1931 308° West 190 219 2,400 -815 Descending FAA TRACON SMA TRACON (SMA)
Mon 07:57:00 PM 38.7042 -90.2253 303° West 186 214 1,700 -975 Descending FAA TRACON SMA TRACON (SMA)
Mon 07:57:39 PM 38.7203 -90.2575 302° West 150 173 1,100 -825 Descending FAA TRACON SMA TRACON (SMA)
Mon 07:58:20 PM 38.7319 -90.2811 302° West 145 167 600 -732 Descending FAA TRACON SMA TRACON (SMA)

Login

Don't have an account? Register now (free) for customized features, flight alerts, and more!